Time;durP1;ratioP1;P1;durP2;ratioP2;P2;SDS_P1;SDS_P2;PMS_P1;PMS_P2;Temp;Humidity;BMP_temperature;BMP_pressure;BME280_temperature;BME280_humidity;BME280_pressure;Samples;Min_cycle;Max_cycle;Signal;HPM_P1;HPM_P2
2023/07/29 00:00:46;;;;;;;6.18;5.30;;;;;;;18.81;98.18;100497.47;3539026;40;20050;-64
2023/07/29 00:03:12;;;;;;;5.97;5.38;;;;;;;18.86;97.94;100489.72;3537958;40;20306;-63
2023/07/29 00:05:39;;;;;;;7.32;5.40;;;;;;;18.86;97.01;100482.38;3537331;40;20059;-63
2023/07/29 00:08:05;;;;;;;7.32;5.40;;;;;;;18.45;96.38;100415.78;3540019;40;20061;-64
2023/07/29 00:10:37;;;;;;;5.82;5.32;;;;;;;18.57;96.68;100428.16;3535108;40;20104;-63
2023/07/29 00:13:04;;;;;;;7.03;4.90;;;;;;;18.89;96.71;100492.97;3539080;40;20381;-64
2023/07/29 00:15:30;;;;;;;8.05;5.30;;;;;;;18.93;96.66;100479.88;3538893;40;20081;-64
2023/07/29 00:17:56;;;;;;;6.53;5.70;;;;;;;18.97;96.52;100498.50;3539254;40;20053;-64
2023/07/29 00:20:21;;;;;;;6.60;5.13;;;;;;;19.00;96.73;100491.88;3539735;40;20054;-64
2023/07/29 00:22:49;;;;;;;8.27;5.00;;;;;;;19.01;96.83;100488.16;3540702;40;20062;-65
2023/07/29 00:25:16;;;;;;;6.47;5.22;;;;;;;19.04;96.03;100484.25;3541110;40;20118;-64
2023/07/29 00:27:42;;;;;;;7.43;5.20;;;;;;;19.05;96.49;100491.41;3538743;40;20117;-64
2023/07/29 00:30:08;;;;;;;7.95;5.07;;;;;;;19.04;96.88;100490.56;3540858;40;20330;-64
2023/07/29 00:32:36;;;;;;;6.05;5.30;;;;;;;19.04;96.47;100486.97;3540774;40;20141;-64
2023/07/29 00:35:02;;;;;;;6.18;5.18;;;;;;;19.07;96.45;100482.06;3537664;40;20050;-64
2023/07/29 00:37:30;;;;;;;6.90;5.78;;;;;;;18.62;96.78;100395.88;3537767;40;20134;-64
2023/07/29 00:39:56;;;;;;;6.75;5.60;;;;;;;19.04;96.19;100459.75;3537747;40;20054;-64
2023/07/29 00:42:21;;;;;;;6.22;5.18;;;;;;;19.05;96.06;100462.28;3540280;40;20046;-64
2023/07/29 00:44:47;;;;;;;6.03;5.35;;;;;;;19.01;95.69;100466.34;3545925;40;20154;-64
2023/07/29 00:47:16;;;;;;;7.75;5.75;;;;;;;18.99;95.73;100462.91;3540419;40;20072;-64
2023/07/29 00:49:45;;;;;;;6.35;5.32;;;;;;;18.99;95.74;100469.22;3537520;40;20382;-64
2023/07/29 00:52:12;;;;;;;6.95;5.47;;;;;;;18.96;96.26;100455.06;3539862;40;20046;-63
2023/07/29 00:54:42;;;;;;;7.10;5.65;;;;;;;18.94;95.60;100443.50;3534280;40;20148;-64
2023/07/29 00:57:11;;;;;;;6.30;5.60;;;;;;;18.93;95.79;100442.59;3535330;40;20057;-64
2023/07/29 00:59:38;;;;;;;8.00;5.57;;;;;;;18.35;95.88;100356.00;3542599;40;20046;-66
2023/07/29 01:02:04;;;;;;;6.57;5.88;;;;;;;18.88;95.98;100450.41;3541404;40;20050;-64
2023/07/29 01:04:30;;;;;;;11.32;6.10;;;;;;;18.86;96.79;100449.72;3534174;40;20125;-64
2023/07/29 01:07:23;;;;;;;7.00;6.30;;;;;;;18.66;97.44;100410.88;3533631;40;20046;-64
2023/07/29 01:10:04;;;;;;;6.65;5.95;;;;;;;18.89;97.32;100454.84;3534307;40;20062;-64
2023/07/29 01:13:18;;;;;;;6.75;5.93;;;;;;;18.86;97.56;100457.88;3540460;40;20097;-64
2023/07/29 01:15:54;;;;;;;6.32;5.72;;;;;;;18.86;97.63;100457.03;3533444;40;20388;-64
2023/07/29 01:18:31;;;;;;;7.22;6.07;;;;;;;18.83;98.06;100451.91;3540139;40;20117;-64
2023/07/29 01:21:11;;;;;;;6.03;5.53;;;;;;;18.87;98.07;100459.63;3538664;40;20097;-64
2023/07/29 01:23:36;;;;;;;6.68;5.97;;;;;;;18.89;98.63;100462.16;3537645;40;20085;-64
2023/07/29 01:26:03;;;;;;;9.18;5.90;;;;;;;18.88;98.17;100465.91;3539073;40;20381;-63
2023/07/29 01:28:31;;;;;;;6.72;5.95;;;;;;;18.88;98.66;100460.47;3538343;40;20192;-63
2023/07/29 01:31:31;;;;;;;6.80;5.97;;;;;;;18.86;97.96;100467.91;3539844;40;20124;-64
2023/07/29 01:34:14;;;;;;;6.88;6.18;;;;;;;18.84;98.56;100469.94;3534153;40;20341;-64
2023/07/29 01:36:45;;;;;;;7.32;5.90;;;;;;;18.81;97.87;100464.81;3540505;40;20061;-64
2023/07/29 01:39:14;;;;;;;5.80;5.30;;;;;;;18.74;96.86;100464.56;3545032;40;20301;-63
2023/07/29 01:41:43;;;;;;;5.80;5.05;;;;;;;18.73;96.28;100474.63;3537873;40;20054;-64
2023/07/29 01:44:12;;;;;;;10.48;5.53;;;;;;;18.68;95.36;100474.22;3541208;40;20050;-64
2023/07/29 01:46:38;;;;;;;5.72;5.07;;;;;;;18.59;94.72;100466.97;3541264;40;20492;-63
2023/07/29 01:49:03;;;;;;;5.97;4.75;;;;;;;18.62;94.01;100476.72;3544910;40;20213;-64
2023/07/29 01:51:29;;;;;;;8.27;4.60;;;;;;;18.23;93.71;100409.78;3537726;40;20093;-64
2023/07/29 01:53:55;;;;;;;4.88;4.25;;;;;;;18.61;92.89;100481.28;3541619;40;20053;-64
2023/07/29 01:56:21;;;;;;;4.60;4.20;;;;;;;18.58;92.40;100484.31;3541136;40;20192;-64
2023/07/29 01:58:47;;;;;;;4.75;4.25;;;;;;;17.73;91.18;100345.00;3540250;40;20095;-64
2023/07/29 02:01:12;;;;;;;4.65;4.22;;;;;;;18.58;90.48;100476.13;3542415;40;20061;-64
2023/07/29 02:03:38;;;;;;;4.43;4.03;;;;;;;18.59;90.53;100472.44;3537999;40;20060;-64
2023/07/29 02:06:04;;;;;;;5.45;3.92;;;;;;;18.58;89.57;100481.59;3533320;40;20383;-63
2023/07/29 02:08:30;;;;;;;4.97;4.03;;;;;;;18.57;88.98;100474.44;3537563;40;20062;-64
2023/07/29 02:10:56;;;;;;;4.63;3.90;;;;;;;18.06;88.01;100395.19;3535559;40;20114;-64
2023/07/29 02:13:21;;;;;;;6.20;3.67;;;;;;;18.05;88.08;100382.59;3534342;40;20067;-63
2023/07/29 02:15:47;;;;;;;3.80;3.50;;;;;;;18.58;87.82;100473.41;3542264;40;20053;-64
2023/07/29 02:18:12;;;;;;;3.92;3.25;;;;;;;18.59;87.16;100464.25;3534052;40;20196;-64
2023/07/29 02:20:38;;;;;;;4.35;3.42;;;;;;;18.63;86.77;100459.34;3532904;40;20074;-64
2023/07/29 02:23:04;;;;;;;4.72;3.13;;;;;;;18.15;85.70;100377.09;3536857;40;20054;-64
2023/07/29 02:25:30;;;;;;;4.13;3.10;;;;;;;18.64;85.05;100464.63;3538910;40;20089;-63
2023/07/29 02:27:55;;;;;;;3.85;3.40;;;;;;;18.64;85.36;100464.63;3538497;40;20294;-64
2023/07/29 02:30:21;;;;;;;4.00;3.60;;;;;;;18.64;85.28;100459.19;3533497;40;20058;-64
2023/07/29 02:32:47;;;;;;;3.53;3.22;;;;;;;18.65;85.59;100455.47;3539276;40;20126;-64
2023/07/29 02:35:12;;;;;;;3.60;3.30;;;;;;;18.64;85.38;100458.34;3540637;40;20305;-64
2023/07/29 02:37:38;;;;;;;3.75;3.08;;;;;;;17.97;85.23;100354.44;3543933;40;20070;-64
2023/07/29 02:40:05;;;;;;;3.42;3.13;;;;;;;18.26;85.26;100404.03;3538275;40;20057;-64
2023/07/29 02:42:31;;;;;;;4.07;3.10;;;;;;;18.58;85.33;100457.09;3538261;40;20275;-64
2023/07/29 02:44:57;;;;;;;4.00;3.30;;;;;;;18.56;85.69;100457.25;3538296;40;20061;-63
2023/07/29 02:47:22;;;;;;;5.55;3.47;;;;;;;18.54;85.96;100461.13;3536631;40;20061;-64
2023/07/29 02:49:48;;;;;;;3.45;3.13;;;;;;;18.52;86.34;100454.97;3538878;40;20058;-64
2023/07/29 02:52:14;;;;;;;3.53;3.22;;;;;;;18.49;85.58;100450.72;3536794;40;20057;-64
2023/07/29 02:54:39;;;;;;;4.40;3.55;;;;;;;18.46;86.52;100453.75;3535425;40;20058;-64
2023/07/29 02:57:05;;;;;;;5.00;3.53;;;;;;;18.44;86.92;100454.91;3536790;40;20411;-63
2023/07/29 02:59:31;;;;;;;5.15;3.78;;;;;;;18.40;86.53;100439.91;3538349;40;20093;-64
2023/07/29 03:01:56;;;;;;;3.63;3.33;;;;;;;18.37;87.10;100442.94;3538035;40;20117;-64
2023/07/29 03:04:23;;;;;;;4.70;3.53;;;;;;;18.31;87.25;100441.69;3537250;40;20049;-65
2023/07/29 03:06:48;;;;;;;6.13;3.78;;;;;;;18.30;87.47;100445.44;3535454;40;20313;-64
2023/07/29 03:09:14;;;;;;;4.50;4.05;;;;;;;18.24;88.24;100452.34;3537116;40;20069;-65
2023/07/29 03:11:40;;;;;;;5.20;3.72;;;;;;;18.21;88.65;100439.03;3539587;40;20520;-65
2023/07/29 03:14:05;;;;;;;6.45;4.05;;;;;;;18.21;88.30;100441.75;3537966;40;20058;-64
2023/07/29 03:16:31;;;;;;;4.57;4.10;;;;;;;18.19;88.34;100445.63;3536971;40;20054;-65
2023/07/29 03:18:57;;;;;;;5.63;4.00;;;;;;;17.78;88.62;100388.91;3535406;40;20057;-65
2023/07/29 03:21:23;;;;;;;5.65;4.43;;;;;;;18.15;89.47;100453.25;3533511;40;20082;-65
2023/07/29 03:23:48;;;;;;;5.30;4.30;;;;;;;18.14;88.34;100461.56;3533877;40;20102;-65
2023/07/29 03:26:14;;;;;;;6.38;4.40;;;;;;;17.73;88.54;100402.09;3533982;40;20054;-64
2023/07/29 03:28:42;;;;;;;5.13;4.25;;;;;;;18.07;88.51;100466.75;3532306;40;20400;-64
2023/07/29 03:31:09;;;;;;;5.53;4.22;;;;;;;18.05;88.65;100463.34;3532424;40;20094;-64
2023/07/29 03:33:35;;;;;;;6.15;4.32;;;;;;;17.98;88.59;100446.78;3532195;40;20062;-64
2023/07/29 03:36:01;;;;;;;6.07;4.25;;;;;;;18.03;87.86;100459.91;3537523;40;20479;-64
2023/07/29 03:38:27;;;;;;;4.38;3.97;;;;;;;18.02;88.01;100463.66;3533549;40;20413;-64
2023/07/29 03:40:53;;;;;;;4.55;4.20;;;;;;;18.00;87.92;100466.50;3535997;40;20051;-64
2023/07/29 03:43:19;;;;;;;4.70;4.10;;;;;;;17.86;87.71;100439.84;3534938;40;20130;-64
2023/07/29 03:45:45;;;;;;;6.15;3.83;;;;;;;18.00;87.72;100458.34;3534215;40;20046;-65
2023/07/29 03:48:11;;;;;;;4.75;3.95;;;;;;;17.95;87.26;100459.81;3532083;40;20069;-65
2023/07/29 03:50:37;;;;;;;4.47;4.07;;;;;;;17.91;88.08;100463.84;3537057;40;20090;-65
2023/07/29 03:53:04;;;;;;;4.38;3.92;;;;;;;17.86;87.97;100462.44;3539131;40;20061;-65
2023/07/29 03:55:31;;;;;;;4.28;3.88;;;;;;;17.33;88.42;100357.09;3539128;40;20054;-64
2023/07/29 03:57:57;;;;;;;4.00;3.70;;;;;;;17.50;88.50;100371.72;3538284;40;20645;-65
2023/07/29 04:00:24;;;;;;;5.63;4.00;;;;;;;17.81;88.57;100415.81;3537173;40;20388;-65
2023/07/29 04:02:50;;;;;;;6.45;3.97;;;;;;;17.81;89.38;100423.09;3538038;40;20054;-66
2023/07/29 04:05:16;;;;;;;4.70;4.20;;;;;;;17.78;89.26;100423.41;3537484;40;20061;-66
2023/07/29 04:07:42;;;;;;;5.72;4.78;;;;;;;17.76;89.20;100426.25;3536880;40;20050;-65
2023/07/29 04:10:09;;;;;;;6.97;4.75;;;;;;;17.74;89.72;100417.38;3536139;40;20050;-64
2023/07/29 04:12:35;;;;;;;5.82;5.13;;;;;;;17.72;89.63;100408.53;3539210;40;20054;-64
2023/07/29 04:15:00;;;;;;;6.60;4.95;;;;;;;17.71;89.64;100417.69;3538216;40;20066;-65
2023/07/29 04:17:26;;;;;;;7.47;4.20;;;;;;;17.71;89.88;100416.84;3535643;40;20393;-64
2023/07/29 04:19:51;;;;;;;5.25;4.38;;;;;;;17.60;90.19;100421.47;3535202;40;20394;-64
2023/07/29 04:22:17;;;;;;;5.28;4.50;;;;;;;17.68;90.39;100453.34;3536136;40;20051;-64
2023/07/29 04:24:43;;;;;;;6.28;4.88;;;;;;;17.68;90.79;100461.50;3535340;40;20057;-64
2023/07/29 04:27:09;;;;;;;5.90;3.90;;;;;;;17.67;91.20;100465.22;3534822;40;20070;-64
2023/07/29 04:29:36;;;;;;;5.80;3.90;;;;;;;17.67;90.16;100473.38;3535839;40;20086;-64
2023/07/29 04:32:05;;;;;;;4.32;3.92;;;;;;;17.67;90.56;100465.22;3535722;40;20053;-65
2023/07/29 04:34:31;;;;;;;5.57;4.10;;;;;;;17.69;90.30;100463.19;3536583;40;20342;-64
2023/07/29 04:36:57;;;;;;;4.22;3.83;;;;;;;17.25;89.80;100381.41;3537207;40;20152;-64
2023/07/29 04:39:23;;;;;;;4.07;3.60;;;;;;;17.70;90.18;100462.22;3537837;40;20123;-64
2023/07/29 04:41:49;;;;;;;4.18;3.22;;;;;;;17.73;88.85;100469.19;3536491;40;20054;-64
2023/07/29 04:44:14;;;;;;;3.50;3.20;;;;;;;16.85;88.55;100336.41;3534534;40;20058;-64
2023/07/29 04:46:40;;;;;;;3.97;3.38;;;;;;;17.75;88.08;100483.50;3539042;40;20077;-64
2023/07/29 04:49:06;;;;;;;3.50;3.17;;;;;;;17.78;87.42;100481.34;3538750;40;20329;-64
2023/07/29 04:51:31;;;;;;;3.42;3.13;;;;;;;17.28;87.21;100388.41;3535896;40;20058;-64
2023/07/29 04:53:58;;;;;;;3.42;3.13;;;;;;;17.71;86.79;100460.34;3538496;40;20060;-64
2023/07/29 04:56:24;;;;;;;4.40;3.03;;;;;;;17.83;87.64;100476.34;3534120;40;20097;-64
2023/07/29 04:58:50;;;;;;;3.20;2.90;;;;;;;17.82;87.38;100473.75;3534207;40;20066;-64
2023/07/29 05:01:16;;;;;;;3.55;2.90;;;;;;;17.86;85.94;100478.75;3535872;40;20102;-65
2023/07/29 05:03:41;;;;;;;3.30;2.80;;;;;;;17.82;86.38;100468.31;3537582;40;20058;-64
2023/07/29 05:06:07;;;;;;;3.55;2.78;;;;;;;17.92;86.62;100487.31;3534707;40;20050;-64
2023/07/29 05:08:33;;;;;;;3.45;2.90;;;;;;;17.93;85.69;100486.31;3535058;40;20055;-64
2023/07/29 05:10:58;;;;;;;2.92;2.70;;;;;;;17.96;85.22;100496.91;3533665;40;20378;-64
2023/07/29 05:13:24;;;;;;;3.28;2.97;;;;;;;17.96;85.71;100505.91;3534780;40;20365;-64
2023/07/29 05:15:50;;;;;;;3.35;2.70;;;;;;;18.01;85.03;100502.72;3534105;40;20152;-64
2023/07/29 05:18:17;;;;;;;3.05;2.80;;;;;;;17.71;84.64;100455.75;3537511;40;20069;-64
2023/07/29 05:20:43;;;;;;;3.90;2.83;;;;;;;18.04;84.96;100510.56;3535085;40;20062;-64
2023/07/29 05:23:09;;;;;;;3.17;2.70;;;;;;;18.04;85.17;100500.53;3539588;40;20611;-64
2023/07/29 05:25:34;;;;;;;2.92;2.60;;;;;;;18.05;84.77;100501.44;3537385;40;20400;-64
2023/07/29 05:28:01;;;;;;;3.08;2.78;;;;;;;18.03;84.21;100493.41;3537527;40;20058;-65
2023/07/29 05:30:30;;;;;;;3.10;2.90;;;;;;;18.03;83.96;100504.28;3536322;40;20445;-64
2023/07/29 05:32:57;;;;;;;4.13;2.95;;;;;;;18.03;84.10;100493.41;3538655;40;20082;-64
2023/07/29 05:35:24;;;;;;;3.95;2.70;;;;;;;18.01;83.97;100491.84;3535731;40;20066;-65
2023/07/29 05:37:50;;;;;;;2.70;2.50;;;;;;;18.06;84.06;100497.69;3533971;40;20059;-64
2023/07/29 05:40:16;;;;;;;2.88;2.53;;;;;;;18.00;84.14;100490.97;3535164;40;20487;-64
2023/07/29 05:42:42;;;;;;;3.03;2.83;;;;;;;18.09;84.27;100498.25;3536277;40;20095;-64
2023/07/29 05:45:08;;;;;;;3.83;2.85;;;;;;;18.10;83.66;100488.22;3535102;40;20053;-64
2023/07/29 05:47:34;;;;;;;3.90;3.15;;;;;;;18.10;83.94;100488.22;3536298;40;20132;-64
2023/07/29 05:50:04;;;;;;;3.70;3.10;;;;;;;18.15;84.74;100496.78;3535718;40;20050;-64
2023/07/29 05:52:30;;;;;;;3.92;3.10;;;;;;;18.19;83.92;100491.88;3534745;40;20078;-64
2023/07/29 05:54:56;;;;;;;4.20;2.85;;;;;;;18.26;83.68;100496.56;3538040;40;20086;-64
2023/07/29 05:57:22;;;;;;;4.20;2.70;;;;;;;17.98;83.72;100443.19;3534826;40;20671;-65
2023/07/29 05:59:47;;;;;;;2.90;2.70;;;;;;;18.30;83.46;100488.97;3535235;40;20114;-64
2023/07/29 06:02:13;;;;;;;3.97;3.13;;;;;;;18.41;83.43;100491.47;3534489;40;20321;-64
2023/07/29 06:04:39;;;;;;;3.40;3.10;;;;;;;18.42;82.27;100481.41;3533980;40;20098;-64
2023/07/29 06:07:06;;;;;;;2.80;2.47;;;;;;;18.58;81.47;100497.91;3534258;40;20050;-64
2023/07/29 06:09:32;;;;;;;5.10;2.95;;;;;;;18.61;81.81;100485.88;3537848;40;20070;-64
2023/07/29 06:11:57;;;;;;;2.75;2.55;;;;;;;18.61;81.13;100474.97;3535989;40;20397;-64
2023/07/29 06:14:23;;;;;;;3.83;2.92;;;;;;;18.81;80.98;100492.03;3534670;40;20074;-64
2023/07/29 06:16:48;;;;;;;2.78;2.38;;;;;;;18.88;80.14;100479.53;3533159;40;20058;-64
2023/07/29 06:19:14;;;;;;;3.53;2.67;;;;;;;19.00;80.36;100497.34;3532608;40;20058;-64
2023/07/29 06:21:40;;;;;;;3.78;2.67;;;;;;;19.09;79.67;100490.06;3532064;40;20058;-64
2023/07/29 06:24:05;;;;;;;2.95;2.47;;;;;;;18.69;78.74;100407.00;3534003;40;20085;-64
2023/07/29 06:26:31;;;;;;;3.15;2.50;;;;;;;19.19;78.52;100485.41;3537335;40;20065;-64
2023/07/29 06:28:56;;;;;;;3.65;2.30;;;;;;;19.18;78.81;100484.50;3538590;40;20059;-64
2023/07/29 06:31:22;;;;;;;2.97;2.47;;;;;;;19.17;78.64;100471.06;3533101;40;20065;-64
2023/07/29 06:33:48;;;;;;;6.85;5.80;;;;;;;19.33;78.89;100492.13;3532893;40;20073;-63
2023/07/29 06:36:14;;;;;;;3.20;2.90;;;;;;;19.38;78.14;100500.69;3533236;40;20051;-64
2023/07/29 06:38:40;;;;;;;2.75;2.55;;;;;;;19.45;78.84;100491.69;3539289;40;20053;-64
2023/07/29 06:41:06;;;;;;;5.40;2.92;;;;;;;19.55;78.56;100491.59;3536207;40;20049;-64
2023/07/29 06:43:32;;;;;;;4.07;2.30;;;;;;;19.69;77.57;100485.59;3535174;40;20090;-64
2023/07/29 06:45:58;;;;;;;2.40;2.20;;;;;;;19.78;76.07;100499.25;3535413;40;20065;-64
2023/07/29 06:48:23;;;;;;;2.40;2.08;;;;;;;19.85;76.71;100503.91;3536752;40;20098;-64
2023/07/29 06:50:50;;;;;;;2.30;2.17;;;;;;;19.94;76.75;100507.50;3537504;40;20126;-64
2023/07/29 06:53:16;;;;;;;2.17;1.95;;;;;;;19.99;75.65;100509.75;3537160;40;20378;-64
2023/07/29 06:55:43;;;;;;;3.05;2.10;;;;;;;20.17;75.91;100519.56;3538557;40;20046;-64
2023/07/29 06:58:09;;;;;;;3.08;2.10;;;;;;;20.25;75.19;100521.44;3538854;40;20091;-64
2023/07/29 07:00:35;;;;;;;2.65;2.42;;;;;;;20.33;74.87;100521.50;3535501;40;20050;-64
2023/07/29 07:03:01;;;;;;;2.40;2.10;;;;;;;19.95;74.54;100449.22;3537019;40;20050;-64
2023/07/29 07:05:27;;;;;;;2.20;2.00;;;;;;;20.59;74.18;100529.63;3538732;40;20050;-64
2023/07/29 07:07:52;;;;;;;3.55;2.60;;;;;;;20.66;73.46;100524.31;3538951;40;20078;-64
2023/07/29 07:10:18;;;;;;;2.78;2.53;;;;;;;20.63;72.17;100530.97;3535419;40;20073;-64
2023/07/29 07:12:44;;;;;;;3.55;2.17;;;;;;;20.49;72.67;100517.06;3536632;40;20074;-64
2023/07/29 07:15:10;;;;;;;1.95;1.85;;;;;;;20.51;72.55;100528.69;3537975;40;20054;-64
2023/07/29 07:17:35;;;;;;;3.00;2.10;;;;;;;20.47;73.09;100524.59;3536947;40;20065;-64
2023/07/29 07:20:01;;;;;;;2.78;2.20;;;;;;;20.34;72.75;100500.50;3537499;40;20057;-64
2023/07/29 07:22:27;;;;;;;2.13;2.03;;;;;;;20.51;74.05;100534.16;3539641;40;20058;-64
2023/07/29 07:24:53;;;;;;;2.47;2.10;;;;;;;20.04;73.32;100445.47;3535569;40;20062;-64
2023/07/29 07:27:18;;;;;;;3.13;2.22;;;;;;;20.55;73.22;100533.72;3537249;40;20062;-64
2023/07/29 07:29:44;;;;;;;2.35;2.15;;;;;;;20.72;73.42;100547.41;3540562;40;20058;-63
2023/07/29 07:32:10;;;;;;;3.83;1.90;;;;;;;20.77;73.00;100536.81;3538532;40;20401;-64
2023/07/29 07:34:35;;;;;;;2.25;2.05;;;;;;;20.86;72.62;100538.53;3537776;40;20046;-64
2023/07/29 07:37:01;;;;;;;2.85;2.50;;;;;;;20.99;72.99;100536.13;3540293;40;20047;-64
2023/07/29 07:39:27;;;;;;;3.20;2.08;;;;;;;21.08;71.84;100540.59;3541318;40;20435;-64
2023/07/29 07:41:52;;;;;;;3.35;2.10;;;;;;;21.12;70.80;100546.56;3540570;40;20107;-64
2023/07/29 07:44:19;;;;;;;2.45;2.10;;;;;;;21.07;69.96;100541.63;3535752;40;20061;-64
2023/07/29 07:46:45;;;;;;;3.47;1.90;;;;;;;21.16;70.64;100536.19;3538348;40;20050;-64
2023/07/29 07:49:12;;;;;;;1.98;1.88;;;;;;;21.25;69.94;100549.66;3534126;40;20384;-64
2023/07/29 07:51:39;;;;;;;1.90;1.80;;;;;;;21.40;69.45;100549.00;3535494;40;20581;-64
2023/07/29 07:54:04;;;;;;;2.20;2.00;;;;;;;21.52;67.74;100543.00;3538481;40;20039;-64
2023/07/29 07:56:30;;;;;;;3.50;2.00;;;;;;;21.61;68.54;100546.59;3538631;40;20062;-64
2023/07/29 07:58:55;;;;;;;2.08;1.90;;;;;;;21.72;67.56;100539.88;3533864;40;20119;-64
2023/07/29 08:01:21;;;;;;;1.60;1.50;;;;;;;21.75;66.43;100539.53;3534533;40;20050;-64
2023/07/29 08:03:47;;;;;;;1.70;1.60;;;;;;;21.81;65.96;100549.78;3534047;40;20054;-64
2023/07/29 08:06:12;;;;;;;4.45;1.67;;;;;;;21.78;65.62;100547.41;3535934;40;20398;-63
2023/07/29 08:08:38;;;;;;;2.22;1.60;;;;;;;21.83;65.28;100544.16;3539525;40;20049;-63
2023/07/29 08:11:04;;;;;;;1.88;1.50;;;;;;;21.87;66.15;100545.50;3535900;40;20061;-63
2023/07/29 08:13:29;;;;;;;1.67;1.58;;;;;;;21.54;64.96;100474.47;3538534;40;20073;-63
2023/07/29 08:15:55;;;;;;;1.33;1.23;;;;;;;22.02;64.98;100558.28;3536863;40;20338;-63
2023/07/29 08:18:21;;;;;;;1.30;1.20;;;;;;;21.43;64.14;100456.53;3538135;40;20058;-64
2023/07/29 08:20:54;;;;;;;1.80;1.50;;;;;;;21.96;63.50;100558.97;3537923;40;20053;-63
2023/07/29 08:23:20;;;;;;;1.75;1.45;;;;;;;21.83;64.18;100546.88;3541412;40;20477;-63
2023/07/29 08:25:53;;;;;;;1.63;1.15;;;;;;;21.78;63.94;100547.41;3539344;40;20061;-64
2023/07/29 08:28:19;;;;;;;1.15;1.08;;;;;;;21.70;64.63;100547.44;3537272;40;20094;-63
2023/07/29 08:30:44;;;;;;;1.85;1.30;;;;;;;21.68;65.36;100553.06;3535431;40;20154;-63
2023/07/29 08:33:10;;;;;;;2.22;1.30;;;;;;;21.64;66.23;100553.59;3536990;40;20048;-64
2023/07/29 08:35:35;;;;;;;1.20;1.10;;;;;;;21.63;65.63;100551.88;3535860;40;20046;-63
2023/07/29 08:38:03;;;;;;;1.30;1.20;;;;;;;21.53;66.08;100544.72;3537432;40;20062;-63
2023/07/29 08:40:34;;;;;;;1.10;1.10;;;;;;;21.54;65.72;100562.84;3537861;40;20109;-63
2023/07/29 08:43:05;;;;;;;2.25;1.30;;;;;;;21.46;66.47;100543.69;3538799;40;20062;-63
2023/07/29 08:45:36;;;;;;;1.50;1.40;;;;;;;21.44;66.61;100544.88;3537864;40;20080;-63
2023/07/29 08:48:10;;;;;;;1.40;1.30;;;;;;;21.53;66.11;100533.78;3536131;40;20098;-63
2023/07/29 08:50:37;;;;;;;1.95;1.35;;;;;;;21.73;66.50;100544.34;3541832;40;20057;-63
2023/07/29 08:53:06;;;;;;;2.45;2.28;;;;;;;22.03;65.88;100546.28;3535147;40;20101;-64
2023/07/29 08:55:33;;;;;;;2.00;1.90;;;;;;;22.26;63.68;100548.28;3535936;40;20086;-63
2023/07/29 08:58:00;;;;;;;1.90;1.52;;;;;;;22.04;61.71;100486.91;3536123;40;20054;-63
2023/07/29 09:00:27;;;;;;;2.80;1.33;;;;;;;22.45;62.23;100519.63;3535273;40;20073;-63
2023/07/29 09:02:54;;;;;;;1.52;1.23;;;;;;;22.65;62.98;100536.47;3535729;40;20066;-64
2023/07/29 09:05:21;;;;;;;2.58;1.30;;;;;;;22.71;61.16;100538.50;3535734;40;20125;-64
2023/07/29 09:07:50;;;;;;;1.38;1.27;;;;;;;22.80;61.06;100542.00;3536004;40;20089;-64
2023/07/29 09:10:16;;;;;;;1.33;1.23;;;;;;;22.94;60.92;100544.00;3533637;40;20059;-65
2023/07/29 09:12:42;;;;;;;1.95;1.48;;;;;;;23.04;61.85;100543.75;3535430;40;20061;-65
2023/07/29 09:15:08;;;;;;;1.10;1.00;;;;;;;22.79;60.98;100480.88;3535487;40;20503;-65
2023/07/29 09:17:34;;;;;;;1.85;0.90;;;;;;;23.25;60.50;100535.72;3533746;40;20371;-66
2023/07/29 09:20:00;;;;;;;1.48;1.38;;;;;;;23.32;59.41;100525.69;3533384;40;20137;-64
2023/07/29 09:22:27;;;;;;;1.27;1.00;;;;;;;23.12;60.15;100461.41;3540023;40;20125;-65
2023/07/29 09:24:57;;;;;;;1.13;1.10;;;;;;;23.49;58.75;100539.25;3535490;40;20098;-65
2023/07/29 09:27:27;;;;;;;1.30;1.20;;;;;;;23.52;59.17;100533.41;3534652;40;20051;-65
2023/07/29 09:29:55;;;;;;;2.55;1.50;;;;;;;23.72;59.04;100533.72;3535352;40;20153;-64
2023/07/29 09:32:23;;;;;;;2.08;1.17;;;;;;;23.71;57.77;100507.34;3537097;40;20065;-64
2023/07/29 09:34:49;;;;;;;1.70;1.25;;;;;;;24.15;56.78;100534.78;3536180;40;20073;-65
2023/07/29 09:37:22;;;;;;;1.85;1.20;;;;;;;24.13;56.22;100534.13;3539065;40;20062;-65
2023/07/29 09:39:49;;;;;;;1.35;1.00;;;;;;;24.04;56.89;100529.75;3537181;40;20110;-65
2023/07/29 09:42:21;;;;;;;1.30;1.20;;;;;;;23.91;57.01;100526.84;3537029;40;20386;-65
2023/07/29 09:44:50;;;;;;;2.50;1.20;;;;;;;23.34;58.30;100463.28;3533691;40;20192;-64
2023/07/29 09:47:21;;;;;;;1.35;1.25;;;;;;;23.14;58.28;100457.47;3533759;40;20062;-66
2023/07/29 09:49:47;;;;;;;1.33;1.20;;;;;;;23.38;59.77;100541.41;3533939;40;20049;-66
2023/07/29 09:52:18;;;;;;;1.58;1.30;;;;;;;23.13;59.64;100531.69;3534516;40;20066;-64
2023/07/29 09:54:46;;;;;;;1.55;1.30;;;;;;;22.97;60.97;100534.56;3534375;40;20057;-64
2023/07/29 09:57:15;;;;;;;1.25;1.25;;;;;;;22.86;61.18;100549.50;3533449;40;20050;-66
2023/07/29 09:59:41;;;;;;;2.22;1.00;;;;;;;22.71;61.72;100549.44;3533966;40;20106;-64
2023/07/29 10:02:16;;;;;;;1.08;1.08;;;;;;;21.97;63.34;100421.09;3534694;40;20141;-64
2023/07/29 10:04:42;;;;;;;1.48;1.38;;;;;;;22.67;62.85;100539.88;3534525;40;20065;-64
2023/07/29 10:07:12;;;;;;;1.60;1.50;;;;;;;22.65;62.68;100541.94;3536080;40;20129;-64
2023/07/29 10:09:39;;;;;;;1.55;1.27;;;;;;;22.65;63.33;100528.25;3534698;40;20061;-64
2023/07/29 10:12:07;;;;;;;1.67;1.30;;;;;;;22.84;62.53;100533.25;3536911;40;20046;-64
2023/07/29 10:14:33;;;;;;;2.20;1.30;;;;;;;22.67;62.18;100454.91;3538687;40;20050;-64
2023/07/29 10:17:01;;;;;;;2.00;1.35;;;;;;;23.31;60.31;100534.97;3535223;40;20062;-64
2023/07/29 10:19:27;;;;;;;2.00;1.20;;;;;;;23.47;59.41;100538.59;3536452;40;20120;-64
2023/07/29 10:22:01;;;;;;;2.45;1.40;;;;;;;23.60;59.01;100522.34;3534204;40;20082;-64
2023/07/29 10:24:31;;;;;;;1.88;1.10;;;;;;;23.95;57.15;100540.00;3536322;40;20129;-64
2023/07/29 10:27:00;;;;;;;1.30;1.20;;;;;;;24.14;55.94;100527.59;3538712;40;20090;-64
2023/07/29 10:29:34;;;;;;;2.28;1.20;;;;;;;24.42;57.27;100533.28;3534220;40;20090;-64
2023/07/29 10:32:05;;;;;;;1.30;1.20;;;;;;;24.89;56.08;100539.28;3533273;40;20051;-65
2023/07/29 10:34:35;;;;;;;1.23;1.13;;;;;;;25.22;53.86;100521.25;3533040;40;20050;-65
2023/07/29 10:37:01;;;;;;;3.67;1.85;;;;;;;25.47;54.35;100521.66;3534917;40;20098;-65
2023/07/29 10:39:27;;;;;;;1.33;1.23;;;;;;;25.60;52.75;100504.41;3534829;40;20068;-65
2023/07/29 10:41:56;;;;;;;1.63;1.45;;;;;;;25.99;54.02;100513.16;3536725;40;20106;-65
2023/07/29 10:44:43;;;;;;;1.50;1.40;;;;;;;26.12;50.34;100511.28;3534063;40;24587;-65
2023/07/29 10:47:13;;;;;;;1.52;1.20;;;;;;;25.44;51.45;100434.00;3533004;40;20051;-65
2023/07/29 10:49:50;;;;;;;1.73;1.55;;;;;;;25.71;51.65;100506.56;3533873;40;20050;-65
2023/07/29 10:52:39;;;;;;;1.55;1.42;;;;;;;25.51;52.95;100505.59;3535322;40;20140;-64
2023/07/29 10:55:30;;;;;;;1.50;1.40;;;;;;;25.24;53.09;100508.13;3536855;40;20054;-65
2023/07/29 10:58:25;;;;;;;1.45;1.20;;;;;;;24.98;53.62;100499.63;3533221;40;20047;-65
2023/07/29 11:00:50;;;;;;;1.50;1.40;;;;;;;24.84;54.08;100508.78;3530764;40;20178;-64
2023/07/29 11:03:16;;;;;;;1.13;1.13;;;;;;;24.64;54.76;100503.91;3533113;40;20322;-65
2023/07/29 11:05:48;;;;;;;1.63;1.10;;;;;;;24.50;55.92;100510.31;3533356;40;20381;-64
2023/07/29 11:08:27;;;;;;;1.42;1.33;;;;;;;24.27;56.10;100507.69;3534877;40;20051;-65
2023/07/29 11:11:06;;;;;;;1.65;1.33;;;;;;;24.03;56.62;100512.44;3535492;40;20402;-65
2023/07/29 11:13:36;;;;;;;2.60;2.05;;;;;;;23.91;57.26;100513.09;3534318;40;20059;-64
2023/07/29 11:16:05;;;;;;;2.30;1.38;;;;;;;23.72;58.26;100503.53;3531589;40;20051;-64
2023/07/29 11:18:35;;;;;;;1.60;1.50;;;;;;;23.32;58.60;100451.63;3534579;40;20285;-64
2023/07/29 11:21:03;;;;;;;1.50;1.40;;;;;;;23.55;59.92;100497.34;3532921;40;20069;-65
2023/07/29 11:23:33;;;;;;;1.70;1.60;;;;;;;23.62;59.52;100506.53;3536464;40;20289;-64
2023/07/29 11:25:59;;;;;;;1.50;1.38;;;;;;;23.34;59.54;100457.81;3539653;40;20051;-64